sensor_id;sensor_type;location;lat;lon;timestamp;pressure;altitude;pressure_sealevel;temperature;humidity
43364;BME280;40636;52.424;-1.948;2023-12-28T00:02:05;98216.06;;;8.69;84.09
43364;BME280;40636;52.424;-1.948;2023-12-28T00:04:32;98230.78;;;8.67;84.18
43364;BME280;40636;52.424;-1.948;2023-12-28T00:07:02;98236.81;;;8.68;84.24
43364;BME280;40636;52.424;-1.948;2023-12-28T00:09:30;98231.59;;;8.69;84.66
43364;BME280;40636;52.424;-1.948;2023-12-28T00:11:56;98226.41;;;8.69;84.13
43364;BME280;40636;52.424;-1.948;2023-12-28T00:14:23;98214.38;;;8.68;83.76
43364;BME280;40636;52.424;-1.948;2023-12-28T00:16:50;98207.56;;;8.64;83.45
43364;BME280;40636;52.424;-1.948;2023-12-28T00:19:17;98216.25;;;8.62;84.30
43364;BME280;40636;52.424;-1.948;2023-12-28T00:21:46;98218.03;;;8.60;83.56
43364;BME280;40636;52.424;-1.948;2023-12-28T00:24:15;98212.81;;;8.61;83.94
43364;BME280;40636;52.424;-1.948;2023-12-28T00:26:42;98205.00;;;8.63;84.40
43364;BME280;40636;52.424;-1.948;2023-12-28T00:29:08;98214.44;;;8.65;83.69
43364;BME280;40636;52.424;-1.948;2023-12-28T00:31:35;98216.13;;;8.66;84.36
43364;BME280;40636;52.424;-1.948;2023-12-28T00:34:02;98209.19;;;8.68;83.33
43364;BME280;40636;52.424;-1.948;2023-12-28T00:36:29;98212.56;;;8.70;83.83
43364;BME280;40636;52.424;-1.948;2023-12-28T00:38:56;98216.00;;;8.71;82.73
43364;BME280;40636;52.424;-1.948;2023-12-28T00:41:23;98207.34;;;8.72;82.67
43364;BME280;40636;52.424;-1.948;2023-12-28T00:43:50;98207.31;;;8.73;82.26
43364;BME280;40636;52.424;-1.948;2023-12-28T00:46:17;98205.44;;;8.78;82.31
43364;BME280;40636;52.424;-1.948;2023-12-28T00:48:44;98194.19;;;8.79;82.10
43364;BME280;40636;52.424;-1.948;2023-12-28T00:51:12;98213.19;;;8.78;81.79
43364;BME280;40636;52.424;-1.948;2023-12-28T00:53:39;98223.50;;;8.80;80.78
43364;BME280;40636;52.424;-1.948;2023-12-28T00:56:05;98211.44;;;8.79;81.39
43364;BME280;40636;52.424;-1.948;2023-12-28T00:58:32;98203.72;;;8.77;80.54
43364;BME280;40636;52.424;-1.948;2023-12-28T01:00:59;98192.44;;;8.80;80.50
43364;BME280;40636;52.424;-1.948;2023-12-28T01:03:26;98199.25;;;8.82;79.87
43364;BME280;40636;52.424;-1.948;2023-12-28T01:05:53;98193.09;;;8.86;80.33
43364;BME280;40636;52.424;-1.948;2023-12-28T01:08:20;98205.03;;;8.91;79.31
43364;BME280;40636;52.424;-1.948;2023-12-28T01:10:46;98207.50;;;8.95;78.92
43364;BME280;40636;52.424;-1.948;2023-12-28T01:13:13;98214.19;;;9.02;78.92
43364;BME280;40636;52.424;-1.948;2023-12-28T01:15:40;98219.97;;;9.10;78.20
43364;BME280;40636;52.424;-1.948;2023-12-28T01:18:07;98227.59;;;9.15;78.42
43364;BME280;40636;52.424;-1.948;2023-12-28T01:20:34;98242.03;;;9.22;77.67
43364;BME280;40636;52.424;-1.948;2023-12-28T01:23:01;98228.97;;;9.27;76.85
43364;BME280;40636;52.424;-1.948;2023-12-28T01:25:28;98222.78;;;9.31;77.04
43364;BME280;40636;52.424;-1.948;2023-12-28T01:27:55;98203.75;;;9.32;76.95
43364;BME280;40636;52.424;-1.948;2023-12-28T01:30:22;98199.41;;;9.32;77.43
43364;BME280;40636;52.424;-1.948;2023-12-28T01:32:49;98224.47;;;9.32;76.79
43364;BME280;40636;52.424;-1.948;2023-12-28T01:35:16;98253.84;;;9.32;77.04
43364;BME280;40636;52.424;-1.948;2023-12-28T01:37:43;98258.13;;;9.33;77.41
43364;BME280;40636;52.424;-1.948;2023-12-28T01:40:10;98266.69;;;9.35;77.05
43364;BME280;40636;52.424;-1.948;2023-12-28T01:42:37;98265.75;;;9.38;77.98
43364;BME280;40636;52.424;-1.948;2023-12-28T01:45:04;98247.56;;;9.39;77.33
43364;BME280;40636;52.424;-1.948;2023-12-28T01:47:31;98242.31;;;9.41;78.30
43364;BME280;40636;52.424;-1.948;2023-12-28T01:49:58;98269.88;;;9.43;78.07
43364;BME280;40636;52.424;-1.948;2023-12-28T01:52:27;98270.72;;;9.44;78.20
43364;BME280;40636;52.424;-1.948;2023-12-28T01:54:55;98258.63;;;9.44;78.64
43364;BME280;40636;52.424;-1.948;2023-12-28T01:57:22;98268.19;;;9.42;79.01
43364;BME280;40636;52.424;-1.948;2023-12-28T01:59:50;98267.44;;;9.39;79.76
43364;BME280;40636;52.424;-1.948;2023-12-28T02:02:17;98271.81;;;9.37;80.19
43364;BME280;40636;52.424;-1.948;2023-12-28T02:04:44;98280.50;;;9.36;80.58
43364;BME280;40636;52.424;-1.948;2023-12-28T02:07:13;98282.25;;;9.35;79.97
43364;BME280;40636;52.424;-1.948;2023-12-28T02:09:41;98275.31;;;9.36;79.98
43364;BME280;40636;52.424;-1.948;2023-12-28T02:12:08;98291.72;;;9.36;80.81
43364;BME280;40636;52.424;-1.948;2023-12-28T02:14:35;98333.13;;;9.38;80.73
43364;BME280;40636;52.424;-1.948;2023-12-28T02:17:36;98328.78;;;9.38;80.96
43364;BME280;40636;52.424;-1.948;2023-12-28T02:20:07;98335.75;;;9.36;80.30
43364;BME280;40636;52.424;-1.948;2023-12-28T02:22:34;98332.41;;;9.33;80.45
43364;BME280;40636;52.424;-1.948;2023-12-28T02:25:08;98327.38;;;9.28;79.73
43364;BME280;40636;52.424;-1.948;2023-12-28T02:27:38;98307.59;;;9.26;79.78
43364;BME280;40636;52.424;-1.948;2023-12-28T02:30:06;98322.25;;;9.27;80.20
43364;BME280;40636;52.424;-1.948;2023-12-28T02:32:47;98317.09;;;9.25;79.87
43364;BME280;40636;52.424;-1.948;2023-12-28T02:36:11;98337.69;;;9.30;77.89
43364;BME280;40636;52.424;-1.948;2023-12-28T02:38:33;98340.28;;;9.30;77.89
43364;BME280;40636;52.424;-1.948;2023-12-28T02:41:03;98336.84;;;9.29;76.50
43364;BME280;40636;52.424;-1.948;2023-12-28T02:43:30;98366.91;;;9.35;76.25
43364;BME280;40636;52.424;-1.948;2023-12-28T02:45:58;98351.34;;;9.35;75.92
43364;BME280;40636;52.424;-1.948;2023-12-28T02:48:25;98357.38;;;9.35;74.41
43364;BME280;40636;52.424;-1.948;2023-12-28T02:50:52;98375.44;;;9.38;73.25
43364;BME280;40636;52.424;-1.948;2023-12-28T02:53:19;98371.09;;;9.39;73.11
43364;BME280;40636;52.424;-1.948;2023-12-28T02:55:46;98359.00;;;9.39;73.43
43364;BME280;40636;52.424;-1.948;2023-12-28T02:58:13;98350.41;;;9.37;72.22
43364;BME280;40636;52.424;-1.948;2023-12-28T03:00:40;98365.06;;;9.38;72.95
43364;BME280;40636;52.424;-1.948;2023-12-28T03:03:06;98363.38;;;9.37;73.49
43364;BME280;40636;52.424;-1.948;2023-12-28T03:05:33;98379.91;;;9.33;73.92
43364;BME280;40636;52.424;-1.948;2023-12-28T03:08:00;98372.22;;;9.30;74.16
43364;BME280;40636;52.424;-1.948;2023-12-28T03:10:27;98392.88;;;9.33;74.24
43364;BME280;40636;52.424;-1.948;2023-12-28T03:12:54;98376.31;;;9.37;73.83
43364;BME280;40636;52.424;-1.948;2023-12-28T03:15:22;98377.03;;;9.42;74.04
43364;BME280;40636;52.424;-1.948;2023-12-28T03:17:48;98388.16;;;9.46;73.94
43364;BME280;40636;52.424;-1.948;2023-12-28T03:20:16;98395.09;;;9.45;74.48
43364;BME280;40636;52.424;-1.948;2023-12-28T03:22:43;98387.41;;;9.42;75.20
43364;BME280;40636;52.424;-1.948;2023-12-28T03:25:09;98403.00;;;9.41;74.94
43364;BME280;40636;52.424;-1.948;2023-12-28T03:27:36;98414.22;;;9.41;75.43
43364;BME280;40636;52.424;-1.948;2023-12-28T03:30:03;98412.47;;;9.42;75.81
43364;BME280;40636;52.424;-1.948;2023-12-28T03:32:30;98408.03;;;9.45;75.85
43364;BME280;40636;52.424;-1.948;2023-12-28T03:34:57;98395.94;;;9.46;75.95
43364;BME280;40636;52.424;-1.948;2023-12-28T03:37:24;98428.72;;;9.47;76.34
43364;BME280;40636;52.424;-1.948;2023-12-28T03:39:51;98428.69;;;9.48;76.18
43364;BME280;40636;52.424;-1.948;2023-12-28T03:42:18;98429.53;;;9.49;76.05
43364;BME280;40636;52.424;-1.948;2023-12-28T03:44:45;98436.47;;;9.48;75.72
43364;BME280;40636;52.424;-1.948;2023-12-28T03:47:12;98427.00;;;9.47;76.38
43364;BME280;40636;52.424;-1.948;2023-12-28T03:49:39;98433.81;;;9.50;76.35
43364;BME280;40636;52.424;-1.948;2023-12-28T03:52:06;98452.81;;;9.50;76.06
43364;BME280;40636;52.424;-1.948;2023-12-28T03:54:33;98437.31;;;9.49;76.81
43364;BME280;40636;52.424;-1.948;2023-12-28T03:56:59;98447.72;;;9.47;76.79
43364;BME280;40636;52.424;-1.948;2023-12-28T03:59:26;98447.72;;;9.47;76.47
43364;BME280;40636;52.424;-1.948;2023-12-28T04:01:53;98454.66;;;9.47;76.33
43364;BME280;40636;52.424;-1.948;2023-12-28T04:04:20;98463.31;;;9.46;76.50
43364;BME280;40636;52.424;-1.948;2023-12-28T04:06:47;98454.69;;;9.45;77.00
43364;BME280;40636;52.424;-1.948;2023-12-28T04:09:14;98453.03;;;9.43;77.43
43364;BME280;40636;52.424;-1.948;2023-12-28T04:11:41;98450.53;;;9.40;77.52
43364;BME280;40636;52.424;-1.948;2023-12-28T04:14:08;98454.03;;;9.39;77.73
43364;BME280;40636;52.424;-1.948;2023-12-28T04:16:35;98450.63;;;9.37;77.84
43364;BME280;40636;52.424;-1.948;2023-12-28T04:19:02;98450.63;;;9.37;78.03
43364;BME280;40636;52.424;-1.948;2023-12-28T04:21:29;98461.84;;;9.37;77.14
43364;BME280;40636;52.424;-1.948;2023-12-28T04:23:56;98455.78;;;9.38;77.10
43364;BME280;40636;52.424;-1.948;2023-12-28T04:26:23;98452.25;;;9.41;76.82
43364;BME280;40636;52.424;-1.948;2023-12-28T04:28:49;98454.75;;;9.44;77.03
43364;BME280;40636;52.424;-1.948;2023-12-28T04:31:16;98450.31;;;9.47;76.20
43364;BME280;40636;52.424;-1.948;2023-12-28T04:33:43;98462.34;;;9.50;76.88
43364;BME280;40636;52.424;-1.948;2023-12-28T04:36:10;98478.66;;;9.54;76.48
43364;BME280;40636;52.424;-1.948;2023-12-28T04:38:37;98486.28;;;9.58;76.87
43364;BME280;40636;52.424;-1.948;2023-12-28T04:41:05;98487.06;;;9.62;76.42
43364;BME280;40636;52.424;-1.948;2023-12-28T04:43:32;98506.00;;;9.64;76.54
43364;BME280;40636;52.424;-1.948;2023-12-28T04:46:03;98498.22;;;9.64;77.03
43364;BME280;40636;52.424;-1.948;2023-12-28T04:48:34;98495.59;;;9.65;77.07
43364;BME280;40636;52.424;-1.948;2023-12-28T04:51:04;98512.00;;;9.66;77.21
43364;BME280;40636;52.424;-1.948;2023-12-28T04:53:31;98497.38;;;9.63;76.73
43364;BME280;40636;52.424;-1.948;2023-12-28T04:55:59;98494.75;;;9.65;77.90
43364;BME280;40636;52.424;-1.948;2023-12-28T04:58:25;98500.81;;;9.64;77.57
43364;BME280;40636;52.424;-1.948;2023-12-28T05:00:52;98494.78;;;9.63;77.83
43364;BME280;40636;52.424;-1.948;2023-12-28T05:03:19;98500.81;;;9.64;77.63
43364;BME280;40636;52.424;-1.948;2023-12-28T05:05:46;98481.81;;;9.63;77.73
43364;BME280;40636;52.424;-1.948;2023-12-28T05:08:13;98486.16;;;9.63;78.58
43364;BME280;40636;52.424;-1.948;2023-12-28T05:10:40;98500.81;;;9.64;79.00
43364;BME280;40636;52.424;-1.948;2023-12-28T05:13:07;98499.06;;;9.64;78.68
43364;BME280;40636;52.424;-1.948;2023-12-28T05:15:33;98507.69;;;9.65;78.23
43364;BME280;40636;52.424;-1.948;2023-12-28T05:18:00;98513.78;;;9.64;78.89
43364;BME280;40636;52.424;-1.948;2023-12-28T05:20:27;98508.66;;;9.62;78.47
43364;BME280;40636;52.424;-1.948;2023-12-28T05:22:54;98530.28;;;9.61;79.15
43364;BME280;40636;52.424;-1.948;2023-12-28T05:25:21;98535.47;;;9.61;79.37
43364;BME280;40636;52.424;-1.948;2023-12-28T05:27:48;98523.38;;;9.60;79.29
43364;BME280;40636;52.424;-1.948;2023-12-28T05:30:15;98516.56;;;9.58;79.23
43364;BME280;40636;52.424;-1.948;2023-12-28T05:32:42;98537.34;;;9.56;79.69
43364;BME280;40636;52.424;-1.948;2023-12-28T05:35:09;98529.59;;;9.55;79.97
43364;BME280;40636;52.424;-1.948;2023-12-28T05:37:36;98529.69;;;9.51;79.50
43364;BME280;40636;52.424;-1.948;2023-12-28T05:40:03;98545.38;;;9.47;80.09
43364;BME280;40636;52.424;-1.948;2023-12-28T05:42:30;98559.31;;;9.43;79.44
43364;BME280;40636;52.424;-1.948;2023-12-28T05:44:57;98552.47;;;9.40;79.81
43364;BME280;40636;52.424;-1.948;2023-12-28T05:47:23;98539.63;;;9.36;80.39
43364;BME280;40636;52.424;-1.948;2023-12-28T05:49:50;98539.69;;;9.34;79.60
43364;BME280;40636;52.424;-1.948;2023-12-28T05:52:18;98541.50;;;9.31;80.44
43364;BME280;40636;52.424;-1.948;2023-12-28T05:54:46;98546.78;;;9.28;80.29
43364;BME280;40636;52.424;-1.948;2023-12-28T05:57:15;98545.03;;;9.28;80.43
43364;BME280;40636;52.424;-1.948;2023-12-28T05:59:42;98556.28;;;9.27;80.15
43364;BME280;40636;52.424;-1.948;2023-12-28T06:02:09;98551.94;;;9.28;80.48
43364;BME280;40636;52.424;-1.948;2023-12-28T06:04:36;98559.69;;;9.29;79.78
43364;BME280;40636;52.424;-1.948;2023-12-28T06:07:04;98558.78;;;9.30;80.09
43364;BME280;40636;52.424;-1.948;2023-12-28T06:09:31;98562.22;;;9.31;80.09
43364;BME280;40636;52.424;-1.948;2023-12-28T06:11:58;98568.22;;;9.33;80.59
43364;BME280;40636;52.424;-1.948;2023-12-28T06:14:25;98575.16;;;9.32;79.67
43364;BME280;40636;52.424;-1.948;2023-12-28T06:16:52;98569.97;;;9.32;80.16
43364;BME280;40636;52.424;-1.948;2023-12-28T06:19:19;98572.56;;;9.32;80.07
43364;BME280;40636;52.424;-1.948;2023-12-28T06:21:46;98572.59;;;9.31;80.44
43364;BME280;40636;52.424;-1.948;2023-12-28T06:24:12;98573.53;;;9.28;80.31
43364;BME280;40636;52.424;-1.948;2023-12-28T06:26:43;98580.50;;;9.25;80.98
43364;BME280;40636;52.424;-1.948;2023-12-28T06:29:10;98593.53;;;9.22;80.62
43364;BME280;40636;52.424;-1.948;2023-12-28T06:31:38;98586.75;;;9.17;81.41
43364;BME280;40636;52.424;-1.948;2023-12-28T06:34:06;98594.59;;;9.14;81.58
43364;BME280;40636;52.424;-1.948;2023-12-28T06:36:33;98598.16;;;9.10;81.16
43364;BME280;40636;52.424;-1.948;2023-12-28T06:39:00;98604.25;;;9.08;81.55
43364;BME280;40636;52.424;-1.948;2023-12-28T06:41:27;98595.72;;;9.04;82.27
43364;BME280;40636;52.424;-1.948;2023-12-28T06:43:54;98598.34;;;9.03;82.86
43364;BME280;40636;52.424;-1.948;2023-12-28T06:46:21;98590.63;;;9.01;82.62
43364;BME280;40636;52.424;-1.948;2023-12-28T06:48:48;98591.47;;;9.02;82.35
43364;BME280;40636;52.424;-1.948;2023-12-28T06:51:21;98590.63;;;9.01;83.07
43364;BME280;40636;52.424;-1.948;2023-12-28T06:53:49;98598.38;;;9.01;82.14
43364;BME280;40636;52.424;-1.948;2023-12-28T06:56:17;98600.97;;;9.01;82.73
43364;BME280;40636;52.424;-1.948;2023-12-28T06:58:44;98597.53;;;9.01;82.38
43364;BME280;40636;52.424;-1.948;2023-12-28T07:01:11;98619.06;;;9.03;82.30
43364;BME280;40636;52.424;-1.948;2023-12-28T07:03:39;98635.47;;;9.03;82.16
43364;BME280;40636;52.424;-1.948;2023-12-28T07:06:07;98635.50;;;9.02;81.77
43364;BME280;40636;52.424;-1.948;2023-12-28T07:08:35;98625.25;;;8.97;81.55
43364;BME280;40636;52.424;-1.948;2023-12-28T07:11:03;98624.53;;;8.91;81.63
43364;BME280;40636;52.424;-1.948;2023-12-28T07:13:31;98626.41;;;8.85;82.31
43364;BME280;40636;52.424;-1.948;2023-12-28T07:15:58;98623.03;;;8.82;81.89
43364;BME280;40636;52.424;-1.948;2023-12-28T07:18:27;98639.56;;;8.76;82.23
43364;BME280;40636;52.424;-1.948;2023-12-28T07:20:55;98644.00;;;8.71;81.48
43364;BME280;40636;52.424;-1.948;2023-12-28T07:23:22;98648.41;;;8.66;81.06
43364;BME280;40636;52.424;-1.948;2023-12-28T07:25:49;98650.22;;;8.63;82.06
43364;BME280;40636;52.424;-1.948;2023-12-28T07:28:15;98645.94;;;8.60;81.52
43364;BME280;40636;52.424;-1.948;2023-12-28T07:30:42;98652.09;;;8.56;82.13
43364;BME280;40636;52.424;-1.948;2023-12-28T07:33:09;98637.50;;;8.52;82.86
43364;BME280;40636;52.424;-1.948;2023-12-28T07:35:37;98642.75;;;8.49;82.55
43364;BME280;40636;52.424;-1.948;2023-12-28T07:38:04;98639.50;;;8.41;83.17
43364;BME280;40636;52.424;-1.948;2023-12-28T07:40:30;98648.19;;;8.37;82.81
43364;BME280;40636;52.424;-1.948;2023-12-28T07:42:57;98646.53;;;8.33;82.90
43364;BME280;40636;52.424;-1.948;2023-12-28T07:45:24;98635.44;;;8.28;83.38
43364;BME280;40636;52.424;-1.948;2023-12-28T07:47:51;98652.75;;;8.24;82.99
43364;BME280;40636;52.424;-1.948;2023-12-28T07:50:19;98654.53;;;8.22;82.92
43364;BME280;40636;52.424;-1.948;2023-12-28T07:52:46;98669.19;;;8.21;83.47
43364;BME280;40636;52.424;-1.948;2023-12-28T07:55:14;98673.50;;;8.22;83.22
43364;BME280;40636;52.424;-1.948;2023-12-28T07:57:41;98664.00;;;8.23;83.19
43364;BME280;40636;52.424;-1.948;2023-12-28T08:00:09;98651.88;;;8.25;83.67
43364;BME280;40636;52.424;-1.948;2023-12-28T08:02:36;98671.66;;;8.28;84.21
43364;BME280;40636;52.424;-1.948;2023-12-28T08:05:04;98663.00;;;8.29;84.12
43364;BME280;40636;52.424;-1.948;2023-12-28T08:07:30;98651.78;;;8.30;84.02
43364;BME280;40636;52.424;-1.948;2023-12-28T08:09:57;98679.31;;;8.32;83.61
43364;BME280;40636;52.424;-1.948;2023-12-28T08:12:24;98661.22;;;8.32;83.87
43364;BME280;40636;52.424;-1.948;2023-12-28T08:14:55;98668.97;;;8.32;83.32
43364;BME280;40636;52.424;-1.948;2023-12-28T08:17:22;98662.97;;;8.30;83.18
43364;BME280;40636;52.424;-1.948;2023-12-28T08:19:48;98679.38;;;8.29;83.12
43364;BME280;40636;52.424;-1.948;2023-12-28T08:22:16;98659.56;;;8.28;82.88
43364;BME280;40636;52.424;-1.948;2023-12-28T08:24:43;98667.38;;;8.27;83.30
43364;BME280;40636;52.424;-1.948;2023-12-28T08:27:10;98671.69;;;8.26;82.72
43364;BME280;40636;52.424;-1.948;2023-12-28T08:29:37;98676.91;;;8.24;82.79
43364;BME280;40636;52.424;-1.948;2023-12-28T08:32:04;98671.75;;;8.23;82.32
43364;BME280;40636;52.424;-1.948;2023-12-28T08:34:31;98681.22;;;8.24;82.81
43364;BME280;40636;52.424;-1.948;2023-12-28T08:36:58;98682.09;;;8.23;82.33
43364;BME280;40636;52.424;-1.948;2023-12-28T08:39:25;98695.03;;;8.23;82.40
43364;BME280;40636;52.424;-1.948;2023-12-28T08:41:52;98696.78;;;8.22;82.07
43364;BME280;40636;52.424;-1.948;2023-12-28T08:44:19;98704.59;;;8.19;81.69
43364;BME280;40636;52.424;-1.948;2023-12-28T08:46:47;98706.31;;;8.19;81.97
43364;BME280;40636;52.424;-1.948;2023-12-28T08:49:14;98706.38;;;8.16;82.29
43364;BME280;40636;52.424;-1.948;2023-12-28T08:51:42;98703.84;;;8.13;81.85
43364;BME280;40636;52.424;-1.948;2023-12-28T08:54:10;98701.34;;;8.10;82.14
43364;BME280;40636;52.424;-1.948;2023-12-28T08:56:37;98710.81;;;8.11;81.52
43364;BME280;40636;52.424;-1.948;2023-12-28T08:59:04;98698.75;;;8.08;81.75
43364;BME280;40636;52.424;-1.948;2023-12-28T09:01:31;98701.34;;;8.08;81.58
43364;BME280;40636;52.424;-1.948;2023-12-28T09:03:59;98695.31;;;8.09;81.33
43364;BME280;40636;52.424;-1.948;2023-12-28T09:06:27;98691.84;;;8.10;81.73
43364;BME280;40636;52.424;-1.948;2023-12-28T09:08:54;98697.84;;;8.12;81.81
43364;BME280;40636;52.424;-1.948;2023-12-28T09:11:21;98704.63;;;8.18;81.64
43364;BME280;40636;52.424;-1.948;2023-12-28T09:13:48;98702.84;;;8.20;81.67
43364;BME280;40636;52.424;-1.948;2023-12-28T09:16:15;98686.44;;;8.21;81.30
43364;BME280;40636;52.424;-1.948;2023-12-28T09:18:42;98684.72;;;8.21;81.54
43364;BME280;40636;52.424;-1.948;2023-12-28T09:21:10;98679.53;;;8.21;81.85
43364;BME280;40636;52.424;-1.948;2023-12-28T09:23:37;98673.53;;;8.21;81.54
43364;BME280;40636;52.424;-1.948;2023-12-28T09:26:05;98674.38;;;8.21;81.43
43364;BME280;40636;52.424;-1.948;2023-12-28T09:28:33;98662.28;;;8.22;82.02
43364;BME280;40636;52.424;-1.948;2023-12-28T09:31:03;98667.50;;;8.20;81.37
43364;BME280;40636;52.424;-1.948;2023-12-28T09:33:31;98678.69;;;8.21;81.22
43364;BME280;40636;52.424;-1.948;2023-12-28T09:35:58;98677.81;;;8.22;81.78
43364;BME280;40636;52.424;-1.948;2023-12-28T09:38:26;98665.72;;;8.22;82.18
43364;BME280;40636;52.424;-1.948;2023-12-28T09:40:54;98670.88;;;8.24;81.85
43364;BME280;40636;52.424;-1.948;2023-12-28T09:43:25;98653.56;;;8.26;81.98
43364;BME280;40636;52.424;-1.948;2023-12-28T09:45:53;98670.69;;;8.32;81.89
43364;BME280;40636;52.424;-1.948;2023-12-28T09:48:21;98678.41;;;8.36;82.45
43364;BME280;40636;52.424;-1.948;2023-12-28T09:50:54;98685.25;;;8.39;82.22
43364;BME280;40636;52.424;-1.948;2023-12-28T09:53:25;98683.41;;;8.44;82.24
43364;BME280;40636;52.424;-1.948;2023-12-28T09:55:53;98669.56;;;8.46;82.96
43364;BME280;40636;52.424;-1.948;2023-12-28T09:58:21;98661.69;;;8.51;83.36
43364;BME280;40636;52.424;-1.948;2023-12-28T10:00:49;98668.53;;;8.53;82.81
43364;BME280;40636;52.424;-1.948;2023-12-28T10:03:17;98665.06;;;8.54;82.96
43364;BME280;40636;52.424;-1.948;2023-12-28T10:05:46;98665.88;;;8.56;82.49
43364;BME280;40636;52.424;-1.948;2023-12-28T10:08:14;98676.16;;;8.60;82.87
43364;BME280;40636;52.424;-1.948;2023-12-28T10:10:42;98676.06;;;8.64;82.92
43364;BME280;40636;52.424;-1.948;2023-12-28T10:13:12;98673.41;;;8.69;83.49
43364;BME280;40636;52.424;-1.948;2023-12-28T10:15:39;98662.94;;;8.73;83.30
43364;BME280;40636;52.424;-1.948;2023-12-28T10:18:06;98665.34;;;8.81;83.44
43364;BME280;40636;52.424;-1.948;2023-12-28T10:20:33;98658.34;;;8.84;83.06
43364;BME280;40636;52.424;-1.948;2023-12-28T10:23:00;98660.91;;;8.86;83.38
43364;BME280;40636;52.424;-1.948;2023-12-28T10:25:32;98652.09;;;8.93;83.11
43364;BME280;40636;52.424;-1.948;2023-12-28T10:28:05;98643.34;;;8.99;83.49
43364;BME280;40636;52.424;-1.948;2023-12-28T10:30:33;98646.66;;;9.04;83.69
43364;BME280;40636;52.424;-1.948;2023-12-28T10:33:00;98639.72;;;9.06;83.29
43364;BME280;40636;52.424;-1.948;2023-12-28T10:35:28;98641.25;;;9.13;83.22
43364;BME280;40636;52.424;-1.948;2023-12-28T10:38:00;98635.16;;;9.15;83.36
43364;BME280;40636;52.424;-1.948;2023-12-28T10:40:27;98644.59;;;9.18;83.53
43364;BME280;40636;52.424;-1.948;2023-12-28T10:43:06;98639.38;;;9.19;82.62
43364;BME280;40636;52.424;-1.948;2023-12-28T10:45:34;98648.81;;;9.22;82.78
43364;BME280;40636;52.424;-1.948;2023-12-28T10:48:09;98627.13;;;9.26;82.80
43364;BME280;40636;52.424;-1.948;2023-12-28T10:50:40;98620.97;;;9.30;83.22
43364;BME280;40636;52.424;-1.948;2023-12-28T11:01:42;98602.53;;;9.42;83.20
43364;BME280;40636;52.424;-1.948;2023-12-28T11:04:21;98594.69;;;9.44;82.50
43364;BME280;40636;52.424;-1.948;2023-12-28T11:06:51;98589.44;;;9.47;82.37
43364;BME280;40636;52.424;-1.948;2023-12-28T11:09:20;98574.69;;;9.49;82.77
43364;BME280;40636;52.424;-1.948;2023-12-28T11:11:49;98563.34;;;9.53;82.54
43364;BME280;40636;52.424;-1.948;2023-12-28T11:14:17;98567.63;;;9.54;82.06
43364;BME280;40636;52.424;-1.948;2023-12-28T11:16:44;98560.72;;;9.55;81.80
43364;BME280;40636;52.424;-1.948;2023-12-28T11:19:13;98565.00;;;9.56;81.94
43364;BME280;40636;52.424;-1.948;2023-12-28T11:21:40;98558.94;;;9.57;82.17
43364;BME280;40636;52.424;-1.948;2023-12-28T11:24:08;98560.59;;;9.59;82.66
43364;BME280;40636;52.424;-1.948;2023-12-28T11:26:35;98546.69;;;9.62;82.52
43364;BME280;40636;52.424;-1.948;2023-12-28T11:29:03;98550.06;;;9.64;83.00
43364;BME280;40636;52.424;-1.948;2023-12-28T11:31:34;98544.91;;;9.64;82.66
43364;BME280;40636;52.424;-1.948;2023-12-28T11:34:04;98542.31;;;9.64;82.97
43364;BME280;40636;52.424;-1.948;2023-12-28T11:36:35;98550.97;;;9.63;82.52
43364;BME280;40636;52.424;-1.948;2023-12-28T11:39:05;98538.09;;;9.60;82.74
43364;BME280;40636;52.424;-1.948;2023-12-28T11:41:33;98533.84;;;9.57;82.36
43364;BME280;40636;52.424;-1.948;2023-12-28T11:44:05;98522.69;;;9.55;83.20
43364;BME280;40636;52.424;-1.948;2023-12-28T11:46:32;98518.38;;;9.54;83.01
43364;BME280;40636;52.424;-1.948;2023-12-28T11:49:06;98524.50;;;9.51;83.27
43364;BME280;40636;52.424;-1.948;2023-12-28T11:51:37;98519.41;;;9.48;83.74
43364;BME280;40636;52.424;-1.948;2023-12-28T11:54:06;98527.28;;;9.45;83.66
43364;BME280;40636;52.424;-1.948;2023-12-28T11:56:33;98522.16;;;9.42;83.84
43364;BME280;40636;52.424;-1.948;2023-12-28T11:59:00;98512.75;;;9.40;83.64
43364;BME280;40636;52.424;-1.948;2023-12-28T12:01:27;98524.91;;;9.38;83.97
43364;BME280;40636;52.424;-1.948;2023-12-28T12:03:55;98528.38;;;9.37;85.04
43364;BME280;40636;52.424;-1.948;2023-12-28T12:06:22;98508.53;;;9.36;84.85
43364;BME280;40636;52.424;-1.948;2023-12-28T12:08:49;98501.63;;;9.36;84.72
43364;BME280;40636;52.424;-1.948;2023-12-28T12:11:16;98475.75;;;9.35;85.06
43364;BME280;40636;52.424;-1.948;2023-12-28T12:13:45;98515.47;;;9.35;85.45
43364;BME280;40636;52.424;-1.948;2023-12-28T12:16:15;98516.28;;;9.37;84.99
43364;BME280;40636;52.424;-1.948;2023-12-28T12:18:42;98495.50;;;9.39;85.61
43364;BME280;40636;52.424;-1.948;2023-12-28T12:21:09;98480.75;;;9.41;85.80
43364;BME280;40636;52.424;-1.948;2023-12-28T12:23:37;98492.81;;;9.42;85.61
43364;BME280;40636;52.424;-1.948;2023-12-28T12:26:07;98474.63;;;9.43;85.99
43364;BME280;40636;52.424;-1.948;2023-12-28T12:28:34;98465.91;;;9.46;85.78
43364;BME280;40636;52.424;-1.948;2023-12-28T12:31:01;98466.63;;;9.51;85.88
43364;BME280;40636;52.424;-1.948;2023-12-28T12:33:30;98464.78;;;9.55;85.69
43364;BME280;40636;52.424;-1.948;2023-12-28T12:35:57;98456.78;;;9.62;86.31
43364;BME280;40636;52.424;-1.948;2023-12-28T12:38:24;98443.63;;;9.68;85.41
43364;BME280;40636;52.424;-1.948;2023-12-28T12:40:51;98439.13;;;9.75;85.40
43364;BME280;40636;52.424;-1.948;2023-12-28T12:43:19;98429.34;;;9.85;85.55
43364;BME280;40636;52.424;-1.948;2023-12-28T12:45:47;98436.06;;;9.90;85.98
43364;BME280;40636;52.424;-1.948;2023-12-28T12:48:15;98422.22;;;9.91;84.77
43364;BME280;40636;52.424;-1.948;2023-12-28T12:50:43;98416.09;;;9.94;85.24
43364;BME280;40636;52.424;-1.948;2023-12-28T12:53:10;98425.59;;;9.93;84.61
43364;BME280;40636;52.424;-1.948;2023-12-28T12:55:38;98434.28;;;9.92;84.72
43364;BME280;40636;52.424;-1.948;2023-12-28T12:58:14;98444.75;;;9.89;83.96
43364;BME280;40636;52.424;-1.948;2023-12-28T13:00:45;98418.81;;;9.89;83.95
43364;BME280;40636;52.424;-1.948;2023-12-28T13:03:12;98437.88;;;9.88;83.58
43364;BME280;40636;52.424;-1.948;2023-12-28T13:05:38;98445.78;;;9.83;83.84
43364;BME280;40636;52.424;-1.948;2023-12-28T13:08:06;98483.06;;;9.79;84.15
43364;BME280;40636;52.424;-1.948;2023-12-28T13:10:32;98462.41;;;9.76;84.37
43364;BME280;40636;52.424;-1.948;2023-12-28T13:12:59;98495.31;;;9.74;84.38